sensor_id;sensor_type;location;lat;lon;timestamp;P1;durP1;ratioP1;P2;durP2;ratioP2
1082;SDS011;530;51.448;7.238;2022-12-29T00:01:36;1.17;;;1.07;;
1082;SDS011;530;51.448;7.238;2022-12-29T00:04:02;1.20;;;1.10;;
1082;SDS011;530;51.448;7.238;2022-12-29T00:06:31;1.23;;;1.13;;
1082;SDS011;530;51.448;7.238;2022-12-29T00:08:57;1.37;;;1.07;;
1082;SDS011;530;51.448;7.238;2022-12-29T00:11:24;1.27;;;1.17;;
1082;SDS011;530;51.448;7.238;2022-12-29T00:13:50;1.40;;;1.27;;
1082;SDS011;530;51.448;7.238;2022-12-29T00:16:36;1.13;;;1.03;;
1082;SDS011;530;51.448;7.238;2022-12-29T00:19:04;1.50;;;1.30;;
1082;SDS011;530;51.448;7.238;2022-12-29T00:21:30;1.70;;;1.40;;
1082;SDS011;530;51.448;7.238;2022-12-29T00:24:16;1.73;;;1.10;;
1082;SDS011;530;51.448;7.238;2022-12-29T00:27:04;1.50;;;1.40;;
1082;SDS011;530;51.448;7.238;2022-12-29T00:29:54;1.13;;;1.00;;
1082;SDS011;530;51.448;7.238;2022-12-29T00:32:39;2.07;;;1.07;;
1082;SDS011;530;51.448;7.238;2022-12-29T00:35:25;1.53;;;1.30;;
1082;SDS011;530;51.448;7.238;2022-12-29T00:37:51;1.47;;;1.00;;
1082;SDS011;530;51.448;7.238;2022-12-29T00:40:37;1.87;;;1.20;;
1082;SDS011;530;51.448;7.238;2022-12-29T00:43:22;1.10;;;1.00;;
1082;SDS011;530;51.448;7.238;2022-12-29T00:46:06;2.03;;;1.30;;
1082;SDS011;530;51.448;7.238;2022-12-29T00:48:32;1.73;;;1.33;;
1082;SDS011;530;51.448;7.238;2022-12-29T00:51:16;1.00;;;0.90;;
1082;SDS011;530;51.448;7.238;2022-12-29T00:53:42;1.07;;;0.87;;
1082;SDS011;530;51.448;7.238;2022-12-29T00:56:07;0.90;;;0.90;;
1082;SDS011;530;51.448;7.238;2022-12-29T00:58:33;1.07;;;0.90;;
1082;SDS011;530;51.448;7.238;2022-12-29T01:01:02;1.03;;;0.83;;
1082;SDS011;530;51.448;7.238;2022-12-29T01:03:29;1.00;;;0.90;;
1082;SDS011;530;51.448;7.238;2022-12-29T01:05:55;1.10;;;0.80;;
1082;SDS011;530;51.448;7.238;2022-12-29T01:08:21;1.30;;;0.90;;
1082;SDS011;530;51.448;7.238;2022-12-29T01:10:51;1.20;;;0.80;;
1082;SDS011;530;51.448;7.238;2022-12-29T01:13:26;0.80;;;0.80;;
1082;SDS011;530;51.448;7.238;2022-12-29T01:15:52;0.63;;;0.63;;
1082;SDS011;530;51.448;7.238;2022-12-29T01:18:18;1.00;;;0.90;;
1082;SDS011;530;51.448;7.238;2022-12-29T01:20:45;1.00;;;0.63;;
1082;SDS011;530;51.448;7.238;2022-12-29T01:23:11;0.80;;;0.77;;
1082;SDS011;530;51.448;7.238;2022-12-29T01:25:37;0.60;;;0.57;;
1082;SDS011;530;51.448;7.238;2022-12-29T01:28:02;0.70;;;0.60;;
1082;SDS011;530;51.448;7.238;2022-12-29T01:30:28;0.80;;;0.70;;
1082;SDS011;530;51.448;7.238;2022-12-29T01:32:54;0.67;;;0.60;;
1082;SDS011;530;51.448;7.238;2022-12-29T01:35:19;0.87;;;0.60;;
1082;SDS011;530;51.448;7.238;2022-12-29T01:37:45;1.23;;;0.70;;
1082;SDS011;530;51.448;7.238;2022-12-29T01:40:11;0.80;;;0.60;;
1082;SDS011;530;51.448;7.238;2022-12-29T01:42:37;0.70;;;0.60;;
1082;SDS011;530;51.448;7.238;2022-12-29T01:45:04;1.80;;;1.00;;
1082;SDS011;530;51.448;7.238;2022-12-29T01:50:03;0.97;;;0.73;;
1082;SDS011;530;51.448;7.238;2022-12-29T01:52:33;0.80;;;0.67;;
1082;SDS011;530;51.448;7.238;2022-12-29T01:55:01;1.07;;;0.90;;
1082;SDS011;530;51.448;7.238;2022-12-29T01:57:31;0.70;;;0.60;;
1082;SDS011;530;51.448;7.238;2022-12-29T02:00:08;0.50;;;0.50;;
1082;SDS011;530;51.448;7.238;2022-12-29T02:02:36;0.60;;;0.50;;
1082;SDS011;530;51.448;7.238;2022-12-29T02:05:05;1.23;;;0.50;;
1082;SDS011;530;51.448;7.238;2022-12-29T02:07:38;0.60;;;0.60;;
1082;SDS011;530;51.448;7.238;2022-12-29T02:10:04;0.73;;;0.60;;
1082;SDS011;530;51.448;7.238;2022-12-29T02:12:30;0.70;;;0.60;;
1082;SDS011;530;51.448;7.238;2022-12-29T02:14:57;0.83;;;0.60;;
1082;SDS011;530;51.448;7.238;2022-12-29T02:22:55;0.50;;;0.40;;
1082;SDS011;530;51.448;7.238;2022-12-29T02:25:52;1.23;;;0.60;;
1082;SDS011;530;51.448;7.238;2022-12-29T02:34:07;1.30;;;1.20;;
1082;SDS011;530;51.448;7.238;2022-12-29T02:39:23;1.30;;;0.70;;
1082;SDS011;530;51.448;7.238;2022-12-29T02:42:35;1.00;;;0.60;;
1082;SDS011;530;51.448;7.238;2022-12-29T02:47:51;1.63;;;0.60;;
1082;SDS011;530;51.448;7.238;2022-12-29T02:52:59;0.93;;;0.53;;
1082;SDS011;530;51.448;7.238;2022-12-29T02:55:27;1.30;;;0.60;;
1082;SDS011;530;51.448;7.238;2022-12-29T03:00:33;1.80;;;0.77;;
1082;SDS011;530;51.448;7.238;2022-12-29T03:11:18;1.53;;;0.70;;
1082;SDS011;530;51.448;7.238;2022-12-29T03:14:08;3.33;;;0.83;;
1082;SDS011;530;51.448;7.238;2022-12-29T03:17:04;1.87;;;0.70;;
1082;SDS011;530;51.448;7.238;2022-12-29T03:19:36;1.37;;;0.83;;
1082;SDS011;530;51.448;7.238;2022-12-29T03:22:09;1.00;;;0.50;;
1082;SDS011;530;51.448;7.238;2022-12-29T03:24:52;0.90;;;0.70;;
1082;SDS011;530;51.448;7.238;2022-12-29T03:27:22;2.40;;;0.70;;
1082;SDS011;530;51.448;7.238;2022-12-29T03:29:57;0.77;;;0.70;;
1082;SDS011;530;51.448;7.238;2022-12-29T03:32:37;0.80;;;0.70;;
1082;SDS011;530;51.448;7.238;2022-12-29T03:35:07;1.93;;;0.80;;
1082;SDS011;530;51.448;7.238;2022-12-29T03:37:39;0.80;;;0.80;;
1082;SDS011;530;51.448;7.238;2022-12-29T03:40:08;1.50;;;0.57;;
1082;SDS011;530;51.448;7.238;2022-12-29T03:42:35;2.10;;;0.70;;
1082;SDS011;530;51.448;7.238;2022-12-29T03:45:02;2.33;;;0.90;;
1082;SDS011;530;51.448;7.238;2022-12-29T03:47:30;1.27;;;0.60;;
1082;SDS011;530;51.448;7.238;2022-12-29T03:49:56;0.90;;;0.70;;
1082;SDS011;530;51.448;7.238;2022-12-29T03:52:22;1.40;;;0.83;;
1082;SDS011;530;51.448;7.238;2022-12-29T03:54:47;1.83;;;0.67;;
1082;SDS011;530;51.448;7.238;2022-12-29T03:57:13;0.80;;;0.80;;
1082;SDS011;530;51.448;7.238;2022-12-29T03:59:39;1.57;;;1.03;;
1082;SDS011;530;51.448;7.238;2022-12-29T04:02:04;1.40;;;0.90;;
1082;SDS011;530;51.448;7.238;2022-12-29T04:04:30;1.97;;;0.77;;
1082;SDS011;530;51.448;7.238;2022-12-29T04:06:56;2.33;;;0.70;;
1082;SDS011;530;51.448;7.238;2022-12-29T04:09:21;1.13;;;0.80;;
1082;SDS011;530;51.448;7.238;2022-12-29T04:11:47;1.77;;;0.93;;
1082;SDS011;530;51.448;7.238;2022-12-29T04:14:13;1.10;;;0.80;;
1082;SDS011;530;51.448;7.238;2022-12-29T04:16:38;1.73;;;0.90;;
1082;SDS011;530;51.448;7.238;2022-12-29T04:19:05;1.10;;;0.70;;
1082;SDS011;530;51.448;7.238;2022-12-29T04:21:31;1.30;;;0.60;;
1082;SDS011;530;51.448;7.238;2022-12-29T04:23:56;0.70;;;0.63;;
1082;SDS011;530;51.448;7.238;2022-12-29T04:26:22;0.70;;;0.70;;
1082;SDS011;530;51.448;7.238;2022-12-29T04:28:48;0.50;;;0.50;;
1082;SDS011;530;51.448;7.238;2022-12-29T04:31:14;1.80;;;0.57;;
1082;SDS011;530;51.448;7.238;2022-12-29T04:33:39;0.60;;;0.50;;
1082;SDS011;530;51.448;7.238;2022-12-29T04:36:05;1.13;;;0.67;;
1082;SDS011;530;51.448;7.238;2022-12-29T04:38:31;1.07;;;0.60;;
1082;SDS011;530;51.448;7.238;2022-12-29T04:40:59;1.57;;;0.87;;
1082;SDS011;530;51.448;7.238;2022-12-29T04:43:26;1.13;;;0.70;;
1082;SDS011;530;51.448;7.238;2022-12-29T04:45:51;0.80;;;0.70;;
1082;SDS011;530;51.448;7.238;2022-12-29T04:48:17;0.57;;;0.50;;
1082;SDS011;530;51.448;7.238;2022-12-29T04:50:43;1.67;;;0.70;;
1082;SDS011;530;51.448;7.238;2022-12-29T04:53:12;2.17;;;0.73;;
1082;SDS011;530;51.448;7.238;2022-12-29T04:55:37;1.87;;;1.10;;
1082;SDS011;530;51.448;7.238;2022-12-29T04:58:03;3.90;;;0.80;;
1082;SDS011;530;51.448;7.238;2022-12-29T05:00:29;0.67;;;0.60;;
1082;SDS011;530;51.448;7.238;2022-12-29T05:02:54;0.50;;;0.40;;
1082;SDS011;530;51.448;7.238;2022-12-29T05:05:20;2.00;;;0.50;;
1082;SDS011;530;51.448;7.238;2022-12-29T05:07:46;1.50;;;0.83;;
1082;SDS011;530;51.448;7.238;2022-12-29T05:10:11;1.20;;;0.80;;
1082;SDS011;530;51.448;7.238;2022-12-29T05:12:37;2.17;;;0.70;;
1082;SDS011;530;51.448;7.238;2022-12-29T05:15:04;1.70;;;0.80;;
1082;SDS011;530;51.448;7.238;2022-12-29T05:17:32;0.70;;;0.60;;
1082;SDS011;530;51.448;7.238;2022-12-29T05:19:58;1.47;;;0.67;;
1082;SDS011;530;51.448;7.238;2022-12-29T05:22:24;1.27;;;0.67;;
1082;SDS011;530;51.448;7.238;2022-12-29T05:24:50;1.00;;;0.70;;
1082;SDS011;530;51.448;7.238;2022-12-29T05:27:16;1.60;;;0.60;;
1082;SDS011;530;51.448;7.238;2022-12-29T05:29:42;1.83;;;0.70;;
1082;SDS011;530;51.448;7.238;2022-12-29T05:32:07;1.47;;;0.60;;
1082;SDS011;530;51.448;7.238;2022-12-29T05:34:33;1.43;;;0.90;;
1082;SDS011;530;51.448;7.238;2022-12-29T05:36:59;1.07;;;0.70;;
1082;SDS011;530;51.448;7.238;2022-12-29T05:39:24;1.30;;;0.60;;
1082;SDS011;530;51.448;7.238;2022-12-29T05:41:50;2.57;;;0.93;;
1082;SDS011;530;51.448;7.238;2022-12-29T05:44:16;1.20;;;0.73;;
1082;SDS011;530;51.448;7.238;2022-12-29T05:46:41;1.10;;;0.70;;
1082;SDS011;530;51.448;7.238;2022-12-29T05:49:07;1.70;;;0.80;;
1082;SDS011;530;51.448;7.238;2022-12-29T05:51:33;2.87;;;0.87;;
1082;SDS011;530;51.448;7.238;2022-12-29T05:53:58;1.00;;;0.63;;
1082;SDS011;530;51.448;7.238;2022-12-29T05:56:24;1.37;;;0.60;;
1082;SDS011;530;51.448;7.238;2022-12-29T05:58:50;1.40;;;0.67;;
1082;SDS011;530;51.448;7.238;2022-12-29T06:01:15;1.80;;;0.83;;
1082;SDS011;530;51.448;7.238;2022-12-29T06:03:41;1.03;;;0.60;;
1082;SDS011;530;51.448;7.238;2022-12-29T06:06:07;1.57;;;0.90;;
1082;SDS011;530;51.448;7.238;2022-12-29T06:08:33;1.83;;;0.77;;
1082;SDS011;530;51.448;7.238;2022-12-29T06:10:58;1.97;;;0.87;;
1082;SDS011;530;51.448;7.238;2022-12-29T06:13:24;0.73;;;0.60;;
1082;SDS011;530;51.448;7.238;2022-12-29T06:15:50;2.57;;;0.70;;
1082;SDS011;530;51.448;7.238;2022-12-29T06:18:16;3.00;;;0.90;;
1082;SDS011;530;51.448;7.238;2022-12-29T06:20:42;1.33;;;0.70;;
1082;SDS011;530;51.448;7.238;2022-12-29T06:23:08;2.70;;;0.97;;
1082;SDS011;530;51.448;7.238;2022-12-29T06:25:34;1.00;;;0.83;;
1082;SDS011;530;51.448;7.238;2022-12-29T06:28:01;1.20;;;0.77;;
1082;SDS011;530;51.448;7.238;2022-12-29T06:30:27;1.27;;;0.70;;
1082;SDS011;530;51.448;7.238;2022-12-29T06:32:53;2.53;;;0.80;;
1082;SDS011;530;51.448;7.238;2022-12-29T06:35:19;1.60;;;0.83;;
1082;SDS011;530;51.448;7.238;2022-12-29T06:37:47;1.33;;;0.77;;
1082;SDS011;530;51.448;7.238;2022-12-29T06:40:13;0.90;;;0.70;;
1082;SDS011;530;51.448;7.238;2022-12-29T06:42:39;1.33;;;0.60;;
1082;SDS011;530;51.448;7.238;2022-12-29T06:45:04;1.47;;;0.80;;
1082;SDS011;530;51.448;7.238;2022-12-29T06:47:31;1.50;;;0.80;;
1082;SDS011;530;51.448;7.238;2022-12-29T06:49:56;1.60;;;0.77;;
1082;SDS011;530;51.448;7.238;2022-12-29T06:52:22;1.30;;;0.80;;
1082;SDS011;530;51.448;7.238;2022-12-29T06:54:49;1.00;;;0.63;;
1082;SDS011;530;51.448;7.238;2022-12-29T06:57:15;1.63;;;0.70;;
1082;SDS011;530;51.448;7.238;2022-12-29T06:59:40;0.90;;;0.70;;
1082;SDS011;530;51.448;7.238;2022-12-29T07:02:06;2.20;;;0.60;;
1082;SDS011;530;51.448;7.238;2022-12-29T07:04:32;0.77;;;0.60;;
1082;SDS011;530;51.448;7.238;2022-12-29T07:06:57;2.50;;;0.80;;
1082;SDS011;530;51.448;7.238;2022-12-29T07:09:23;1.00;;;0.70;;
1082;SDS011;530;51.448;7.238;2022-12-29T07:11:49;2.00;;;0.73;;
1082;SDS011;530;51.448;7.238;2022-12-29T07:14:15;3.50;;;0.90;;
1082;SDS011;530;51.448;7.238;2022-12-29T07:16:40;3.40;;;0.83;;
1082;SDS011;530;51.448;7.238;2022-12-29T07:19:06;1.63;;;0.80;;
1082;SDS011;530;51.448;7.238;2022-12-29T07:21:32;1.00;;;0.80;;
1082;SDS011;530;51.448;7.238;2022-12-29T07:23:57;2.10;;;0.90;;
1082;SDS011;530;51.448;7.238;2022-12-29T07:26:23;1.00;;;0.60;;
1082;SDS011;530;51.448;7.238;2022-12-29T07:28:49;1.20;;;0.70;;
1082;SDS011;530;51.448;7.238;2022-12-29T07:31:18;1.37;;;0.73;;
1082;SDS011;530;51.448;7.238;2022-12-29T07:33:46;1.33;;;0.70;;
1082;SDS011;530;51.448;7.238;2022-12-29T07:36:12;2.57;;;0.87;;
1082;SDS011;530;51.448;7.238;2022-12-29T07:38:39;2.37;;;0.70;;
1082;SDS011;530;51.448;7.238;2022-12-29T07:41:05;1.57;;;0.70;;
1082;SDS011;530;51.448;7.238;2022-12-29T07:43:31;4.17;;;1.10;;
1082;SDS011;530;51.448;7.238;2022-12-29T07:45:56;6.47;;;1.07;;
1082;SDS011;530;51.448;7.238;2022-12-29T07:48:22;1.87;;;1.00;;
1082;SDS011;530;51.448;7.238;2022-12-29T07:50:47;1.77;;;1.10;;
1082;SDS011;530;51.448;7.238;2022-12-29T07:53:13;3.27;;;1.00;;
1082;SDS011;530;51.448;7.238;2022-12-29T07:55:40;2.10;;;1.03;;
1082;SDS011;530;51.448;7.238;2022-12-29T07:58:06;4.23;;;1.10;;
1082;SDS011;530;51.448;7.238;2022-12-29T08:00:32;1.57;;;0.73;;
1082;SDS011;530;51.448;7.238;2022-12-29T08:02:58;1.90;;;1.07;;
1082;SDS011;530;51.448;7.238;2022-12-29T08:05:24;2.43;;;1.10;;
1082;SDS011;530;51.448;7.238;2022-12-29T08:07:50;3.47;;;1.30;;
1082;SDS011;530;51.448;7.238;2022-12-29T08:10:15;2.33;;;0.80;;
1082;SDS011;530;51.448;7.238;2022-12-29T08:12:41;4.40;;;1.40;;
1082;SDS011;530;51.448;7.238;2022-12-29T08:15:08;2.77;;;0.90;;
1082;SDS011;530;51.448;7.238;2022-12-29T08:17:36;1.80;;;1.00;;
1082;SDS011;530;51.448;7.238;2022-12-29T08:20:02;2.77;;;1.27;;
1082;SDS011;530;51.448;7.238;2022-12-29T08:22:29;1.70;;;1.00;;
1082;SDS011;530;51.448;7.238;2022-12-29T08:24:54;4.73;;;1.10;;
1082;SDS011;530;51.448;7.238;2022-12-29T08:27:20;3.23;;;1.87;;
1082;SDS011;530;51.448;7.238;2022-12-29T08:29:45;4.67;;;1.13;;
1082;SDS011;530;51.448;7.238;2022-12-29T08:32:11;3.57;;;1.30;;
1082;SDS011;530;51.448;7.238;2022-12-29T08:34:37;3.13;;;1.17;;
1082;SDS011;530;51.448;7.238;2022-12-29T08:37:03;2.40;;;0.93;;
1082;SDS011;530;51.448;7.238;2022-12-29T08:39:29;3.07;;;1.00;;
1082;SDS011;530;51.448;7.238;2022-12-29T08:41:55;4.67;;;0.80;;
1082;SDS011;530;51.448;7.238;2022-12-29T08:44:20;4.33;;;0.80;;
1082;SDS011;530;51.448;7.238;2022-12-29T08:46:46;4.00;;;1.07;;
1082;SDS011;530;51.448;7.238;2022-12-29T08:49:12;2.40;;;1.10;;
1082;SDS011;530;51.448;7.238;2022-12-29T08:51:38;4.10;;;1.63;;
1082;SDS011;530;51.448;7.238;2022-12-29T08:54:04;2.40;;;0.87;;
1082;SDS011;530;51.448;7.238;2022-12-29T08:56:30;4.43;;;1.17;;
1082;SDS011;530;51.448;7.238;2022-12-29T08:58:55;2.63;;;1.50;;
1082;SDS011;530;51.448;7.238;2022-12-29T09:01:21;2.23;;;0.90;;
1082;SDS011;530;51.448;7.238;2022-12-29T09:03:47;2.33;;;0.80;;
1082;SDS011;530;51.448;7.238;2022-12-29T09:06:15;4.80;;;0.93;;
1082;SDS011;530;51.448;7.238;2022-12-29T09:08:42;3.83;;;1.37;;
1082;SDS011;530;51.448;7.238;2022-12-29T09:11:19;3.23;;;1.03;;
1082;SDS011;530;51.448;7.238;2022-12-29T09:13:46;3.63;;;1.13;;
1082;SDS011;530;51.448;7.238;2022-12-29T09:16:12;4.53;;;1.50;;
1082;SDS011;530;51.448;7.238;2022-12-29T09:18:38;3.23;;;0.70;;
1082;SDS011;530;51.448;7.238;2022-12-29T09:21:04;2.97;;;0.90;;
1082;SDS011;530;51.448;7.238;2022-12-29T09:23:32;1.77;;;0.70;;
1082;SDS011;530;51.448;7.238;2022-12-29T09:25:59;5.73;;;0.90;;
1082;SDS011;530;51.448;7.238;2022-12-29T09:28:25;2.60;;;1.17;;
1082;SDS011;530;51.448;7.238;2022-12-29T09:30:51;4.70;;;2.10;;
1082;SDS011;530;51.448;7.238;2022-12-29T09:33:17;2.20;;;0.93;;
1082;SDS011;530;51.448;7.238;2022-12-29T09:35:43;1.33;;;0.80;;
1082;SDS011;530;51.448;7.238;2022-12-29T09:38:10;2.83;;;1.07;;
1082;SDS011;530;51.448;7.238;2022-12-29T09:40:36;2.93;;;0.93;;
1082;SDS011;530;51.448;7.238;2022-12-29T09:46:12;1.67;;;0.70;;
1082;SDS011;530;51.448;7.238;2022-12-29T09:48:37;4.07;;;0.90;;
1082;SDS011;530;51.448;7.238;2022-12-29T09:51:10;2.90;;;1.17;;
1082;SDS011;530;51.448;7.238;2022-12-29T09:53:42;1.80;;;1.17;;
1082;SDS011;530;51.448;7.238;2022-12-29T09:56:21;2.33;;;1.03;;
1082;SDS011;530;51.448;7.238;2022-12-29T09:59:22;4.13;;;1.17;;
1082;SDS011;530;51.448;7.238;2022-12-29T10:04:46;4.50;;;1.60;;
1082;SDS011;530;51.448;7.238;2022-12-29T10:18:28;2.83;;;0.97;;
1082;SDS011;530;51.448;7.238;2022-12-29T10:23:46;2.90;;;0.90;;
1082;SDS011;530;51.448;7.238;2022-12-29T10:26:22;4.27;;;1.10;;
1082;SDS011;530;51.448;7.238;2022-12-29T10:28:53;1.60;;;0.93;;
1082;SDS011;530;51.448;7.238;2022-12-29T10:31:31;4.43;;;1.17;;
1082;SDS011;530;51.448;7.238;2022-12-29T10:34:17;4.87;;;1.27;;
1082;SDS011;530;51.448;7.238;2022-12-29T10:36:48;3.63;;;1.30;;
1082;SDS011;530;51.448;7.238;2022-12-29T10:39:22;3.73;;;1.50;;
1082;SDS011;530;51.448;7.238;2022-12-29T10:42:10;3.20;;;0.87;;
1082;SDS011;530;51.448;7.238;2022-12-29T10:44:40;3.10;;;1.03;;
1082;SDS011;530;51.448;7.238;2022-12-29T10:47:12;6.03;;;1.53;;
1082;SDS011;530;51.448;7.238;2022-12-29T10:49:42;2.60;;;1.30;;
1082;SDS011;530;51.448;7.238;2022-12-29T10:52:10;6.80;;;1.30;;
1082;SDS011;530;51.448;7.238;2022-12-29T10:57:41;6.17;;;1.80;;
1082;SDS011;530;51.448;7.238;2022-12-29T11:08:13;5.13;;;1.00;;
1082;SDS011;530;51.448;7.238;2022-12-29T11:10:43;4.33;;;1.20;;
1082;SDS011;530;51.448;7.238;2022-12-29T11:15:38;4.80;;;1.67;;
1082;SDS011;530;51.448;7.238;2022-12-29T11:18:18;6.33;;;1.10;;
1082;SDS011;530;51.448;7.238;2022-12-29T11:20:46;3.33;;;1.20;;
1082;SDS011;530;51.448;7.238;2022-12-29T11:23:23;2.73;;;1.07;;
1082;SDS011;530;51.448;7.238;2022-12-29T11:26:24;5.10;;;1.40;;
1082;SDS011;530;51.448;7.238;2022-12-29T11:31:43;3.47;;;1.07;;
1082;SDS011;530;51.448;7.238;2022-12-29T11:34:27;4.17;;;1.30;;
1082;SDS011;530;51.448;7.238;2022-12-29T11:37:02;2.40;;;1.07;;
1082;SDS011;530;51.448;7.238;2022-12-29T11:42:12;3.40;;;1.30;;
1082;SDS011;530;51.448;7.238;2022-12-29T11:44:47;3.13;;;1.17;;
1082;SDS011;530;51.448;7.238;2022-12-29T11:47:26;5.10;;;1.50;;
1082;SDS011;530;51.448;7.238;2022-12-29T11:49:56;6.07;;;2.20;;
1082;SDS011;530;51.448;7.238;2022-12-29T11:52:26;3.60;;;1.47;;
1082;SDS011;530;51.448;7.238;2022-12-29T11:54:54;3.93;;;1.23;;
1082;SDS011;530;51.448;7.238;2022-12-29T11:57:21;3.63;;;1.40;;
1082;SDS011;530;51.448;7.238;2022-12-29T11:59:50;4.80;;;1.70;;
1082;SDS011;530;51.448;7.238;2022-12-29T12:05:22;2.13;;;1.13;;
1082;SDS011;530;51.448;7.238;2022-12-29T12:10:49;7.23;;;1.40;;
1082;SDS011;530;51.448;7.238;2022-12-29T12:13:30;5.37;;;1.20;;
1082;SDS011;530;51.448;7.238;2022-12-29T12:16:11;3.83;;;1.13;;
1082;SDS011;530;51.448;7.238;2022-12-29T12:21:46;3.40;;;1.20;;
1082;SDS011;530;51.448;7.238;2022-12-29T12:27:15;4.67;;;1.30;;
1082;SDS011;530;51.448;7.238;2022-12-29T12:29:50;2.47;;;1.30;;
1082;SDS011;530;51.448;7.238;2022-12-29T12:35:15;3.87;;;1.20;;
1082;SDS011;530;51.448;7.238;2022-12-29T12:49:15;3.73;;;1.00;;
1082;SDS011;530;51.448;7.238;2022-12-29T12:57:14;3.30;;;1.23;;
1082;SDS011;530;51.448;7.238;2022-12-29T13:08:45;5.63;;;1.37;;
1082;SDS011;530;51.448;7.238;2022-12-29T13:27:42;5.40;;;1.43;;
1082;SDS011;530;51.448;7.238;2022-12-29T13:30:39;5.20;;;1.30;;
1082;SDS011;530;51.448;7.238;2022-12-29T13:36:01;4.73;;;1.27;;
1082;SDS011;530;51.448;7.238;2022-12-29T13:39:05;3.57;;;1.37;;
1082;SDS011;530;51.448;7.238;2022-12-29T13:41:44;5.70;;;1.33;;
1082;SDS011;530;51.448;7.238;2022-12-29T13:44:20;4.67;;;1.33;;
1082;SDS011;530;51.448;7.238;2022-12-29T13:46:53;4.07;;;1.03;;
1082;SDS011;530;51.448;7.238;2022-12-29T13:49:21;5.50;;;1.50;;
1082;SDS011;530;51.448;7.238;2022-12-29T13:51:51;5.10;;;1.33;;
1082;SDS011;530;51.448;7.238;2022-12-29T13:59:41;2.97;;;1.00;;
1082;SDS011;530;51.448;7.238;2022-12-29T14:02:20;4.57;;;1.50;;
1082;SDS011;530;51.448;7.238;2022-12-29T14:08:01;9.93;;;1.97;;
1082;SDS011;530;51.448;7.238;2022-12-29T14:10:32;4.17;;;1.00;;
1082;SDS011;530;51.448;7.238;2022-12-29T14:13:05;2.60;;;1.30;;
1082;SDS011;530;51.448;7.238;2022-12-29T14:15:51;2.67;;;1.00;;
1082;SDS011;530;51.448;7.238;2022-12-29T14:18:30;3.23;;;1.23;;
1082;SDS011;530;51.448;7.238;2022-12-29T14:23:46;3.50;;;1.00;;
1082;SDS011;530;51.448;7.238;2022-12-29T14:28:43;9.77;;;2.10;;
1082;SDS011;530;51.448;7.238;2022-12-29T14:34:14;3.93;;;1.47;;
1082;SDS011;530;51.448;7.238;2022-12-29T14:36:40;3.80;;;1.30;;
1082;SDS011;530;51.448;7.238;2022-12-29T14:39:41;7.00;;;1.67;;
1082;SDS011;530;51.448;7.238;2022-12-29T14:44:26;6.90;;;1.40;;
1082;SDS011;530;51.448;7.238;2022-12-29T14:49:23;2.77;;;1.43;;
1082;SDS011;530;51.448;7.238;2022-12-29T14:51:52;2.70;;;1.07;;
1082;SDS011;530;51.448;7.238;2022-12-29T14:57:08;5.00;;;1.60;;
1082;SDS011;530;51.448;7.238;2022-12-29T14:59:41;10.33;;;1.30;;
1082;SDS011;530;51.448;7.238;2022-12-29T15:02:13;8.50;;;1.57;;
1082;SDS011;530;51.448;7.238;2022-12-29T15:04:43;3.07;;;1.17;;
1082;SDS011;530;51.448;7.238;2022-12-29T15:07:11;4.73;;;1.30;;
1082;SDS011;530;51.448;7.238;2022-12-29T15:09:44;5.40;;;1.30;;
1082;SDS011;530;51.448;7.238;2022-12-29T15:12:30;2.80;;;1.13;;
1082;SDS011;530;51.448;7.238;2022-12-29T15:15:24;2.60;;;1.17;;
1082;SDS011;530;51.448;7.238;2022-12-29T15:17:51;2.60;;;1.23;;
1082;SDS011;530;51.448;7.238;2022-12-29T15:20:28;4.10;;;1.00;;
1082;SDS011;530;51.448;7.238;2022-12-29T15:22:56;3.33;;;0.83;;
1082;SDS011;530;51.448;7.238;2022-12-29T15:25:33;2.20;;;1.17;;
1082;SDS011;530;51.448;7.238;2022-12-29T15:28:02;11.90;;;2.07;;
1082;SDS011;530;51.448;7.238;2022-12-29T15:30:30;4.43;;;1.33;;
1082;SDS011;530;51.448;7.238;2022-12-29T15:32:56;2.20;;;1.00;;
1082;SDS011;530;51.448;7.238;2022-12-29T15:37:59;2.70;;;0.97;;
1082;SDS011;530;51.448;7.238;2022-12-29T15:45:32;3.87;;;1.77;;
1082;SDS011;530;51.448;7.238;2022-12-29T15:47:59;3.10;;;1.10;;
1082;SDS011;530;51.448;7.238;2022-12-29T15:50:32;2.63;;;1.10;;
1082;SDS011;530;51.448;7.238;2022-12-29T15:53:00;3.77;;;1.60;;
1082;SDS011;530;51.448;7.238;2022-12-29T15:55:30;7.10;;;1.70;;
1082;SDS011;530;51.448;7.238;2022-12-29T15:58:03;4.43;;;1.53;;
1082;SDS011;530;51.448;7.238;2022-12-29T16:00:31;6.33;;;1.20;;
1082;SDS011;530;51.448;7.238;2022-12-29T16:03:00;3.53;;;1.53;;
1082;SDS011;530;51.448;7.238;2022-12-29T16:05:34;4.10;;;1.60;;
1082;SDS011;530;51.448;7.238;2022-12-29T16:08:02;6.53;;;1.50;;
1082;SDS011;530;51.448;7.238;2022-12-29T16:10:43;4.07;;;1.27;;
1082;SDS011;530;51.448;7.238;2022-12-29T16:15:55;3.50;;;1.40;;
1082;SDS011;530;51.448;7.238;2022-12-29T16:18:25;5.63;;;1.40;;
1082;SDS011;530;51.448;7.238;2022-12-29T16:20:54;4.53;;;1.37;;
1082;SDS011;530;51.448;7.238;2022-12-29T16:23:25;4.77;;;1.23;;
1082;SDS011;530;51.448;7.238;2022-12-29T16:25:54;4.03;;;1.20;;
1082;SDS011;530;51.448;7.238;2022-12-29T16:28:23;3.37;;;1.07;;
1082;SDS011;530;51.448;7.238;2022-12-29T16:30:57;2.53;;;0.93;;
1082;SDS011;530;51.448;7.238;2022-12-29T16:33:45;2.70;;;1.33;;
1082;SDS011;530;51.448;7.238;2022-12-29T16:36:23;5.23;;;2.60;;
1082;SDS011;530;51.448;7.238;2022-12-29T16:39:02;6.20;;;1.90;;
1082;SDS011;530;51.448;7.238;2022-12-29T16:41:36;8.43;;;2.10;;
1082;SDS011;530;51.448;7.238;2022-12-29T16:44:18;3.73;;;2.00;;
1082;SDS011;530;51.448;7.238;2022-12-29T16:46:55;5.40;;;2.00;;
1082;SDS011;530;51.448;7.238;2022-12-29T16:49:28;5.53;;;2.20;;
1082;SDS011;530;51.448;7.238;2022-12-29T16:51:56;4.80;;;1.77;;
1082;SDS011;530;51.448;7.238;2022-12-29T16:54:30;5.20;;;1.90;;
1082;SDS011;530;51.448;7.238;2022-12-29T16:57:01;4.13;;;2.17;;
1082;SDS011;530;51.448;7.238;2022-12-29T16:59:33;6.73;;;2.10;;
1082;SDS011;530;51.448;7.238;2022-12-29T17:02:15;4.50;;;1.50;;
1082;SDS011;530;51.448;7.238;2022-12-29T17:04:44;5.23;;;2.07;;
1082;SDS011;530;51.448;7.238;2022-12-29T17:07:17;6.10;;;2.00;;
1082;SDS011;530;51.448;7.238;2022-12-29T17:09:45;6.33;;;1.57;;
1082;SDS011;530;51.448;7.238;2022-12-29T17:12:14;9.17;;;2.27;;
1082;SDS011;530;51.448;7.238;2022-12-29T17:14:46;10.10;;;2.40;;
1082;SDS011;530;51.448;7.238;2022-12-29T17:17:31;11.33;;;1.80;;
1082;SDS011;530;51.448;7.238;2022-12-29T17:20:04;3.40;;;1.30;;
1082;SDS011;530;51.448;7.238;2022-12-29T17:22:42;8.90;;;1.87;;
1082;SDS011;530;51.448;7.238;2022-12-29T17:25:12;4.10;;;1.50;;
1082;SDS011;530;51.448;7.238;2022-12-29T17:27:42;4.67;;;1.70;;
1082;SDS011;530;51.448;7.238;2022-12-29T17:30:13;4.57;;;1.97;;
1082;SDS011;530;51.448;7.238;2022-12-29T17:32:42;4.53;;;1.60;;
1082;SDS011;530;51.448;7.238;2022-12-29T17:35:13;5.33;;;1.90;;
1082;SDS011;530;51.448;7.238;2022-12-29T17:37:42;4.17;;;1.30;;
1082;SDS011;530;51.448;7.238;2022-12-29T17:40:11;2.70;;;1.30;;
1082;SDS011;530;51.448;7.238;2022-12-29T17:42:43;6.37;;;1.70;;
1082;SDS011;530;51.448;7.238;2022-12-29T17:45:12;9.90;;;1.87;;
1082;SDS011;530;51.448;7.238;2022-12-29T17:47:42;6.37;;;1.80;;
1082;SDS011;530;51.448;7.238;2022-12-29T17:50:12;7.40;;;2.27;;
1082;SDS011;530;51.448;7.238;2022-12-29T17:52:39;5.67;;;1.80;;
1082;SDS011;530;51.448;7.238;2022-12-29T17:55:05;3.27;;;1.63;;
1082;SDS011;530;51.448;7.238;2022-12-29T17:57:37;5.13;;;1.30;;
1082;SDS011;530;51.448;7.238;2022-12-29T18:00:03;1.80;;;1.50;;
1082;SDS011;530;51.448;7.238;2022-12-29T18:02:30;2.60;;;1.03;;
1082;SDS011;530;51.448;7.238;2022-12-29T18:04:57;3.97;;;1.53;;
1082;SDS011;530;51.448;7.238;2022-12-29T18:07:27;2.33;;;1.30;;
1082;SDS011;530;51.448;7.238;2022-12-29T18:09:54;2.93;;;1.80;;
1082;SDS011;530;51.448;7.238;2022-12-29T18:12:30;2.30;;;1.70;;
1082;SDS011;530;51.448;7.238;2022-12-29T18:15:02;3.37;;;1.80;;
1082;SDS011;530;51.448;7.238;2022-12-29T18:17:28;3.60;;;1.73;;
1082;SDS011;530;51.448;7.238;2022-12-29T18:19:54;6.20;;;1.97;;
1082;SDS011;530;51.448;7.238;2022-12-29T18:22:21;5.90;;;1.90;;
1082;SDS011;530;51.448;7.238;2022-12-29T18:24:48;3.20;;;1.33;;
1082;SDS011;530;51.448;7.238;2022-12-29T18:27:14;5.03;;;1.33;;
1082;SDS011;530;51.448;7.238;2022-12-29T18:29:40;1.87;;;1.20;;
1082;SDS011;530;51.448;7.238;2022-12-29T18:32:09;3.10;;;1.30;;
1082;SDS011;530;51.448;7.238;2022-12-29T18:34:39;2.50;;;1.40;;